Montrose, CO

6:13 AM MDT on May 22, 2018 (GMT -0600)
Montrose Regional

Weather History for KMTJ - April, 2013

Change the Weather History Date:

Tuesday, April 9, 2013

  Actual Average Record
Temperature  
Mean Temperature 31 °F 47 °F  
Max Temperature 41 °F 61 °F 78 °F (2012)
Min Temperature 20 °F 34 °F 20 °F (2013)
Degree Days  
Heating Degree Days 34 18  
Month to date heating degree days 132 170  
Since 1 July heating degree days 5518 5626  
Cooling Degree Days 0 0  
Month to date cooling degree days 0 0  
Year to date cooling degree days 0 0  
Moisture  
Dew Point 26 °F    
Average Humidity 85    
Maximum Humidity 100    
Minimum Humidity 70    
Precipitation  
Precipitation 0.16 in 0.03 in 0.24 in (2004)
Month to date precipitation 0.32 0.28  
Year to date precipitation 1.55 2.53  
Sea Level Pressure  
Sea Level Pressure 29.75 in    
Wind  
Wind Speed 8 mph (NNW)    
Max Wind Speed 21 mph    
Max Gust Speed 24 mph    
Visibility 3 miles    
Events Fog , Snow    
T = Trace of Precipitation, MM = Missing Value Source: NWS Daily Summary

Daily Weather History Graph

Daily Weather History Graph

Search for Another Location

Airport or City:

Astronomy

Apr. 09, 2013 Rise Set
Actual Time 6:43 AM MDT 7:42 PM MDT
Civil Twilight 6:16 AM MDT 8:09 PM MDT
Nautical Twilight 5:44 AM MDT 8:42 PM MDT
Astronomical Twilight 5:11 AM MDT 9:15 PM MDT
Moon 6:07 AM MDT (4/9) 7:21 PM MDT (4/9)
Length of Visible Light 13h 53m
Length of Day
12h 58m
Waning Crescent, 0% of the Moon is Illuminated
Apr 9
Waning Crescent
Apr 10
New
Apr 18
First Quarter
Apr 25
Full
May 2
Last Quarter

Hourly Weather History & Observations

Time (MDT) Temp. Windchill Dew Point Humidity Pressure Visibility Wind Dir Wind Speed Gust Speed Precip Events Conditions
12:53 AM 41.0 °F 35.8 °F 33.1 °F 73% 29.36 in 10.0 mi ESE 8.1 mph - N/A   Clear
1:53 AM 39.9 °F 36.7 °F 34.0 °F 79% 29.37 in 10.0 mi SW 4.6 mph - N/A   Clear
2:53 AM 37.9 °F 33.5 °F 33.1 °F 83% 29.36 in 10.0 mi WSW 5.8 mph - N/A   Clear
3:53 AM 37.0 °F 32.4 °F 33.1 °F 86% 29.38 in 10.0 mi ESE 5.8 mph - N/A   Clear
4:53 AM 37.9 °F - 33.1 °F 83% 29.41 in 10.0 mi Calm Calm - N/A   Clear
5:53 AM 37.9 °F 32.7 °F 33.1 °F 83% 29.44 in 10.0 mi East 6.9 mph - N/A   Overcast
6:53 AM 39.0 °F 35.7 °F 33.1 °F 79% 29.44 in 10.0 mi ESE 4.6 mph - N/A   Overcast
7:53 AM 39.0 °F 34.0 °F 34.0 °F 82% 29.45 in 10.0 mi South 6.9 mph - N/A   Overcast
8:53 AM 39.9 °F 36.7 °F 33.1 °F 77% 29.47 in 10.0 mi SSE 4.6 mph - N/A   Overcast
9:53 AM 39.0 °F 33.4 °F 30.9 °F 73% 29.49 in 10.0 mi North 8.1 mph - N/A   Overcast
10:36 AM 35.6 °F 25.2 °F 30.2 °F 81% 29.60 in 2.0 mi NW 18.4 mph 24.2 mph 0.00 in Snow Light Snow
10:38 AM 33.8 °F 22.8 °F 30.2 °F 87% 29.61 in 1.0 mi NW 18.4 mph 24.2 mph 0.00 in Snow Light Snow
10:43 AM 32.0 °F 22.5 °F 30.2 °F 93% 29.61 in 0.5 mi NNW 12.7 mph 21.9 mph 0.00 in Fog , Snow Snow
10:51 AM 32.0 °F 24.2 °F 30.2 °F 93% 29.61 in 0.5 mi NW 9.2 mph - 0.00 in Fog , Snow Snow
10:53 AM 32.0 °F 22.5 °F 30.9 °F 96% 29.55 in 0.5 mi NW 12.7 mph 17.3 mph 0.00 in Fog , Snow Snow
10:56 AM 32.0 °F 23.6 °F 30.2 °F 93% 29.62 in 0.5 mi NW 10.4 mph 17.3 mph 0.00 in Fog , Snow Snow
11:46 AM 30.2 °F 20.8 °F 28.4 °F 93% 29.63 in 0.5 mi WNW 11.5 mph - 0.03 in Fog , Snow Snow
11:53 AM 30.0 °F 19.5 °F 28.0 °F 92% 29.59 in 0.5 mi NW 13.8 mph 18.4 mph 0.03 in Fog , Snow Snow
12:53 PM 28.9 °F 25.2 °F 28.0 °F 96% 29.63 in 0.5 mi WNW 3.5 mph - 0.03 in Fog , Snow Light Snow
1:09 PM 28.4 °F - 28.4 °F 100% 29.67 in 0.5 mi Calm Calm - 0.01 in Fog , Snow Light Snow
1:28 PM 28.4 °F 20.4 °F 26.6 °F 93% 29.68 in 0.5 mi NNW 8.1 mph - 0.02 in Fog , Snow Snow
1:40 PM 28.4 °F 18.5 °F 26.6 °F 93% 29.69 in 0.8 mi NNW 11.5 mph - 0.03 in Snow Light Snow
1:51 PM 28.4 °F 19.7 °F 26.6 °F 93% 29.69 in 1.0 mi North 9.2 mph - 0.03 in Snow Light Snow
1:52 PM 28.9 °F 21.1 °F 26.1 °F 89% 29.65 in 1.0 mi North 8.1 mph - 0.03 in Snow Light Snow
2:05 PM 28.4 °F 20.4 °F 26.6 °F 93% 29.69 in 0.8 mi North 8.1 mph - 0.00 in Snow Light Snow
2:19 PM 28.4 °F 21.2 °F 26.6 °F 93% 29.70 in 0.8 mi North 6.9 mph - 0.01 in Snow Light Snow
2:53 PM 28.0 °F 19.3 °F 25.0 °F 88% 29.70 in 0.5 mi NW 9.2 mph - 0.02 in Fog , Snow Snow
3:00 PM 28.4 °F 19.1 °F 24.8 °F 86% 29.73 in 0.5 mi NW 10.4 mph - 0.00 in Fog , Snow Light Snow
3:13 PM 28.4 °F 18.5 °F 26.6 °F 93% 29.73 in 0.5 mi NW 11.5 mph - 0.01 in Fog , Snow Snow
3:34 PM 28.4 °F 19.1 °F 24.8 °F 86% 29.75 in 0.5 mi NW 10.4 mph - 0.01 in Fog , Snow Snow
3:53 PM 28.0 °F 17.5 °F 25.0 °F 88% 29.74 in 0.5 mi NW 12.7 mph - 0.02 in Fog , Snow Snow
4:05 PM 28.4 °F 17.5 °F 24.8 °F 86% 29.77 in 1.0 mi WNW 13.8 mph - 0.00 in Snow Light Snow
4:15 PM 28.4 °F 19.1 °F 24.8 °F 86% 29.77 in 1.2 mi NW 10.4 mph - 0.00 in Snow Light Snow
4:25 PM 28.4 °F 19.7 °F 24.8 °F 86% 29.78 in 1.0 mi NW 9.2 mph 19.6 mph 0.00 in Snow Light Snow
4:53 PM 28.0 °F 17.0 °F 24.1 °F 85% 29.78 in 1.8 mi NW 13.8 mph - 0.00 in Snow Light Snow
5:01 PM 26.6 °F 16.2 °F 24.8 °F 93% 29.80 in 2.0 mi NW 11.5 mph - 0.00 in Snow Light Snow
5:09 PM 26.6 °F 17.5 °F 24.8 °F 93% 29.81 in 2.5 mi NNW 9.2 mph - 0.00 in Snow Light Snow
5:39 PM 26.6 °F 20.0 °F 24.8 °F 93% 29.83 in 1.5 mi North 5.8 mph - 0.00 in Snow Light Snow
5:44 PM 26.6 °F 20.0 °F 24.8 °F 93% 29.83 in 1.0 mi NNE 5.8 mph - 0.00 in Snow Light Snow
5:48 PM 26.6 °F 20.0 °F 24.8 °F 93% 29.84 in 0.8 mi NNE 5.8 mph - 0.00 in Snow Light Snow
5:53 PM 27.0 °F 21.6 °F 24.1 °F 89% 29.83 in 0.8 mi North 4.6 mph - 0.00 in Snow Light Snow
5:59 PM 26.6 °F 21.2 °F 24.8 °F 93% 29.85 in 1.0 mi North 4.6 mph - 0.00 in Snow Light Snow
6:06 PM 26.6 °F 17.5 °F 24.8 °F 93% 29.86 in 1.8 mi NNW 9.2 mph - 0.00 in Snow Light Snow
6:14 PM 26.6 °F 20.0 °F 23.0 °F 86% 29.87 in 2.0 mi NNW 5.8 mph - 0.01 in Snow Light Snow
6:18 PM 26.6 °F 17.5 °F 24.8 °F 93% 29.87 in 1.5 mi NW 9.2 mph - 0.01 in Snow Light Snow
6:26 PM 26.6 °F 15.7 °F 23.0 °F 86% 29.87 in 1.2 mi WNW 12.7 mph - 0.01 in Snow Light Snow
6:32 PM 26.6 °F 16.2 °F 21.2 °F 80% 29.88 in 1.8 mi WNW 11.5 mph - 0.01 in Snow Light Snow
6:39 PM 26.6 °F 19.1 °F 23.0 °F 86% 29.88 in 1.8 mi NNW 6.9 mph - 0.01 in Snow Light Snow
6:45 PM 26.6 °F 20.0 °F 23.0 °F 86% 29.88 in 1.5 mi NW 5.8 mph - 0.01 in Snow Light Snow
6:53 PM 26.1 °F 17.6 °F 23.0 °F 88% 29.88 in 1.2 mi NNW 8.1 mph - 0.01 in Snow Light Snow
7:02 PM 24.8 °F 15.3 °F 23.0 °F 93% 29.89 in 1.0 mi NW 9.2 mph - 0.00 in Snow Light Snow
7:07 PM 24.8 °F 15.3 °F 23.0 °F 93% 29.90 in 1.2 mi NNW 9.2 mph - 0.00 in Snow Light Snow
7:26 PM 24.8 °F 15.3 °F 21.2 °F 86% 29.91 in 0.8 mi NW 9.2 mph - 0.00 in Snow Light Snow
7:49 PM 24.8 °F 15.3 °F 21.2 °F 86% 29.93 in 1.0 mi NNW 9.2 mph - 0.01 in Snow Light Snow
7:53 PM 24.1 °F 16.0 °F 21.9 °F 91% 29.93 in 1.2 mi NNW 6.9 mph - 0.01 in Snow Light Snow
8:12 PM 23.0 °F 11.7 °F 21.2 °F 93% 29.95 in 1.8 mi NW 11.5 mph - 0.00 in Snow Light Snow
8:23 PM 23.0 °F 11.7 °F 19.4 °F 86% 29.96 in 2.5 mi NW 11.5 mph - 0.00 in Snow Light Snow
8:30 PM 23.0 °F 13.1 °F 19.4 °F 86% 29.96 in 3.0 mi NW 9.2 mph - 0.00 in Snow Light Snow
8:44 PM 23.0 °F 15.8 °F 21.2 °F 93% 29.97 in 1.8 mi NW 5.8 mph - 0.00 in Snow Light Snow
8:53 PM 21.9 °F 10.4 °F 19.9 °F 92% 29.98 in 1.2 mi NW 11.5 mph - 0.00 in Snow Light Snow
9:50 PM 21.2 °F 8.3 °F 19.4 °F 93% 30.01 in 1.8 mi NW 13.8 mph - 0.01 in Snow Light Snow
9:53 PM 21.9 °F 9.2 °F 18.0 °F 85% 30.02 in 1.8 mi NW 13.8 mph - 0.01 in Snow Light Snow
10:17 PM 21.2 °F 10.9 °F 17.6 °F 86% 30.02 in 3.0 mi NNW 9.2 mph - 0.00 in Snow Light Snow
10:53 PM 21.0 °F 12.4 °F 19.0 °F 92% 30.06 in 3.0 mi North 6.9 mph - 0.00 in Snow Light Snow
11:28 PM 21.2 °F 11.7 °F 19.4 °F 93% 30.03 in 4.0 mi NNE 8.1 mph - 0.00 in Snow Light Snow
11:53 PM 19.9 °F 12.1 °F 18.0 °F 92% 30.08 in 4.0 mi NNE 5.8 mph - 0.00 in Snow Light Snow